^^
Station Historical Data
 
Daily Summary for December 11, 2017 Units:  English    Metric   Both
« Previous Day
Next Day »
Daily Weekly Monthly Yearly Custom
  Current: High: Low: Average:
Temperature: 59.0 °F 66.2 °F 39.2 °F 51.3 °F
Dew Point: 29.9 °F 39.2 °F 17.1 °F 30.5 °F
Humidity: 33% 100% 15% 56%
Wind Speed: 0.0mph 0.0mph 0.0mph 0mph
Wind Gust: 0.0mph 0.0mph - -
WindCalm - - North
Pressure: 30.17 in 30.33 in 30.17 in -
Precipitation: 0.00 in      
Historical Graphs
 
 
Tabular Data for December 11, 2017
Time Temperature Dew Point Pressure Wind Wind Speed Wind Gust Humidity Rainfall Rate (Hourly) solar Conditions
00:04 39.2 °F 33.5 °F 30.33 in Calm     80% 0.00 in 0.0 W/m2 CLR
00:09 39.2 °F 33.5 °F 30.33 in Calm     80% 0.00 in 0.0 W/m2 CLR
00:14 39.2 °F 33.5 °F 30.33 in Calm     80% 0.00 in 0.0 W/m2 CLR
00:19 39.2 °F 37.3 °F 30.32 in Calm     93% 0.00 in 0.0 W/m2 CLR
00:24 39.2 °F 37.3 °F 30.32 in Calm     93% 0.00 in 0.0 W/m2 CLR
00:34 39.2 °F 37.3 °F 30.32 in Calm     93% 0.00 in 0.0 W/m2 CLR
00:39 39.2 °F 37.3 °F 30.32 in Calm     93% 0.00 in 0.0 W/m2 CLR
00:49 39.2 °F 37.3 °F 30.32 in Calm     93% 0.00 in 0.0 W/m2 CLR
00:59 39.2 °F 37.3 °F 30.32 in Calm     93% 0.00 in 0.0 W/m2 CLR
01:04 39.2 °F 39.2 °F 30.31 in Calm     100% 0.00 in 0.0 W/m2 CLR
01:09 39.2 °F 39.2 °F 30.31 in Calm     100% 0.00 in 0.0 W/m2 CLR
01:14 39.2 °F 39.2 °F 30.31 in Calm     100% 0.00 in 0.0 W/m2 CLR
01:19 39.2 °F 39.2 °F 30.31 in Calm     100% 0.00 in 0.0 W/m2 CLR
01:24 39.2 °F 39.2 °F 30.31 in Calm     100% 0.00 in 0.0 W/m2 CLR
01:29 39.2 °F 39.2 °F 30.31 in Calm     100% 0.00 in 0.0 W/m2 CLR
01:34 39.2 °F 39.2 °F 30.31 in Calm     100% 0.00 in 0.0 W/m2 CLR
01:39 39.2 °F 39.2 °F 30.31 in Calm     100% 0.00 in 0.0 W/m2 CLR
01:49 39.2 °F 39.2 °F 30.31 in Calm     100% 0.00 in 0.0 W/m2 CLR
01:54 39.2 °F 39.2 °F 30.31 in Calm     100% 0.00 in 0.0 W/m2 CLR
01:59 39.2 °F 39.2 °F 30.31 in Calm     100% 0.00 in 0.0 W/m2 CLR
02:04 41.0 °F 37.1 °F 30.30 in Calm     86% 0.00 in 0.0 W/m2 CLR
02:14 41.0 °F 37.1 °F 30.30 in Calm     86% 0.00 in 0.0 W/m2 CLR
02:19 41.0 °F 37.1 °F 30.30 in Calm     86% 0.00 in 0.0 W/m2 CLR
02:24 41.0 °F 37.1 °F 30.30 in Calm     86% 0.00 in 0.0 W/m2 CLR
02:29 41.0 °F 37.1 °F 30.30 in Calm     86% 0.00 in 0.0 W/m2 CLR
02:30 41.0 °F 37.1 °F 30.30 in Calm     86% 0.00 in 0.0 W/m2 CLR
02:35 41.0 °F 37.1 °F 30.30 in Calm     86% 0.00 in 0.0 W/m2 CLR
02:40 41.0 °F 37.1 °F 30.30 in Calm     86% 0.00 in 0.0 W/m2 CLR
02:45 41.0 °F 37.1 °F 30.30 in Calm     86% 0.00 in 0.0 W/m2 CLR
02:50 41.0 °F 37.1 °F 30.30 in Calm     86% 0.00 in 0.0 W/m2 CLR
02:55 41.0 °F 37.1 °F 30.30 in Calm     86% 0.00 in 0.0 W/m2 CLR
03:05 41.0 °F 39.1 °F 30.29 in Calm     93% 0.00 in 0.0 W/m2 CLR
03:10 41.0 °F 39.1 °F 30.29 in Calm     93% 0.00 in 0.0 W/m2 CLR
03:15 41.0 °F 39.1 °F 30.29 in Calm     93% 0.00 in 0.0 W/m2 CLR
03:20 41.0 °F 39.1 °F 30.29 in Calm     93% 0.00 in 0.0 W/m2 CLR
03:25 41.0 °F 39.1 °F 30.29 in Calm     93% 0.00 in 0.0 W/m2 CLR
03:50 41.0 °F 39.1 °F 30.29 in Calm     93% 0.00 in 0.0 W/m2 CLR
03:55 41.0 °F 39.1 °F 30.29 in Calm     93% 0.00 in 0.0 W/m2 CLR
04:05 39.2 °F 39.2 °F 30.29 in Calm     100% 0.00 in 0.0 W/m2 CLR
04:10 39.2 °F 39.2 °F 30.29 in Calm     100% 0.00 in 0.0 W/m2 CLR
04:15 39.2 °F 39.2 °F 30.29 in Calm     100% 0.00 in 0.0 W/m2 CLR
04:20 39.2 °F 39.2 °F 30.29 in Calm     100% 0.00 in 0.0 W/m2 CLR
04:25 39.2 °F 39.2 °F 30.29 in Calm     100% 0.00 in 0.0 W/m2 CLR
04:35 39.2 °F 39.2 °F 30.29 in Calm     100% 0.00 in 0.0 W/m2 CLR
04:40 39.2 °F 39.2 °F 30.29 in Calm     100% 0.00 in 0.0 W/m2 CLR
04:45 39.2 °F 39.2 °F 30.29 in Calm     100% 0.00 in 0.0 W/m2 CLR
04:55 39.2 °F 39.2 °F 30.29 in Calm     100% 0.00 in 0.0 W/m2 CLR
05:00 39.2 °F 39.2 °F 30.29 in Calm     100% 0.00 in 0.0 W/m2 CLR
05:10 41.0 °F 37.1 °F 30.29 in Calm     86% 0.00 in 0.0 W/m2 CLR
05:20 41.0 °F 37.1 °F 30.29 in Calm     86% 0.00 in 0.0 W/m2 CLR
05:25 41.0 °F 37.1 °F 30.29 in Calm     86% 0.00 in 0.0 W/m2 CLR
05:30 41.0 °F 37.1 °F 30.29 in Calm     86% 0.00 in 0.0 W/m2 CLR
05:35 41.0 °F 37.1 °F 30.29 in Calm     86% 0.00 in 0.0 W/m2 CLR
05:40 41.0 °F 37.1 °F 30.29 in Calm     86% 0.00 in 0.0 W/m2 CLR
05:45 41.0 °F 37.1 °F 30.29 in Calm     86% 0.00 in 0.0 W/m2 CLR
05:50 41.0 °F 37.1 °F 30.29 in Calm     86% 0.00 in 0.0 W/m2 CLR
05:55 41.0 °F 37.1 °F 30.29 in Calm     86% 0.00 in 0.0 W/m2 CLR
06:05 42.8 °F 35.4 °F 30.29 in Calm     75% 0.00 in 0.0 W/m2 CLR
06:07 42.8 °F 35.4 °F 30.29 in Calm     75% 0.00 in 0.0 W/m2 CLR
06:12 42.8 °F 35.4 °F 30.29 in Calm     75% 0.00 in 0.0 W/m2 CLR
06:32 42.8 °F 35.4 °F 30.29 in Calm     75% 0.00 in 0.0 W/m2 CLR
06:37 42.8 °F 35.4 °F 30.29 in Calm     75% 0.00 in 0.0 W/m2 CLR
06:42 42.8 °F 35.4 °F 30.29 in Calm     75% 0.00 in 0.0 W/m2 CLR
06:47 42.8 °F 35.4 °F 30.29 in Calm     75% 0.00 in 0.0 W/m2 CLR
06:52 42.8 °F 35.4 °F 30.29 in Calm     75% 0.00 in 0.0 W/m2 CLR
06:57 42.8 °F 35.4 °F 30.29 in Calm     75% 0.00 in 0.0 W/m2 CLR
07:02 41.0 °F 37.1 °F 30.30 in Calm     86% 0.00 in 0.0 W/m2 CLR
07:12 41.0 °F 37.1 °F 30.30 in Calm     86% 0.00 in 0.0 W/m2 CLR
07:27 41.0 °F 37.1 °F 30.30 in Calm     86% 0.00 in 0.0 W/m2 CLR
07:32 41.0 °F 37.1 °F 30.30 in Calm     86% 0.00 in 0.0 W/m2 CLR
07:37 41.0 °F 37.1 °F 30.30 in Calm     86% 0.00 in 0.0 W/m2 CLR
07:42 41.0 °F 37.1 °F 30.30 in Calm     86% 0.00 in 0.0 W/m2 CLR
07:52 41.0 °F 37.1 °F 30.30 in Calm     86% 0.00 in 0.0 W/m2 CLR
07:57 41.0 °F 37.1 °F 30.30 in Calm     86% 0.00 in 0.0 W/m2 CLR
08:02 41.0 °F 39.1 °F 30.31 in Calm     93% 0.00 in 0.0 W/m2 CLR
08:12 41.0 °F 39.1 °F 30.31 in Calm     93% 0.00 in 0.0 W/m2 CLR
08:17 41.0 °F 39.1 °F 30.31 in Calm     93% 0.00 in 0.0 W/m2 CLR
08:32 41.0 °F 39.1 °F 30.31 in Calm     93% 0.00 in 0.0 W/m2 CLR
08:37 41.0 °F 39.1 °F 30.31 in Calm     93% 0.00 in 0.0 W/m2 CLR
08:42 41.0 °F 39.1 °F 30.31 in Calm     93% 0.00 in 0.0 W/m2 CLR
08:47 41.0 °F 39.1 °F 30.31 in Calm     93% 0.00 in 0.0 W/m2 CLR
08:52 41.0 °F 39.1 °F 30.31 in Calm     93% 0.00 in 0.0 W/m2 CLR
08:57 41.0 °F 39.1 °F 30.31 in Calm     93% 0.00 in 0.0 W/m2 CLR
09:02 57.2 °F 24.3 °F 30.31 in Calm     28% 0.00 in 0.0 W/m2 CLR
09:07 57.2 °F 24.3 °F 30.31 in Calm     28% 0.00 in 0.0 W/m2 CLR
09:12 57.2 °F 24.3 °F 30.31 in Calm     28% 0.00 in 0.0 W/m2 CLR
09:22 57.2 °F 24.3 °F 30.31 in Calm     28% 0.00 in 0.0 W/m2 CLR
09:27 57.2 °F 24.3 °F 30.31 in Calm     28% 0.00 in 0.0 W/m2 CLR
09:37 57.2 °F 24.3 °F 30.31 in Calm     28% 0.00 in 0.0 W/m2 CLR
09:42 57.2 °F 24.3 °F 30.31 in Calm     28% 0.00 in 0.0 W/m2 CLR
09:47 57.2 °F 24.3 °F 30.31 in Calm     28% 0.00 in 0.0 W/m2 CLR
09:52 57.2 °F 24.3 °F 30.31 in Calm     28% 0.00 in 0.0 W/m2 CLR
10:02 59.0 °F 25.9 °F 30.31 in Calm     28% 0.00 in 0.0 W/m2 CLR
10:04 59.0 °F 25.9 °F 30.31 in Calm     28% 0.00 in 0.0 W/m2 CLR
10:09 59.0 °F 25.9 °F 30.31 in Calm     28% 0.00 in 0.0 W/m2 CLR
10:19 59.0 °F 25.9 °F 30.31 in Calm     28% 0.00 in 0.0 W/m2 CLR
10:24 59.0 °F 25.9 °F 30.31 in Calm     28% 0.00 in 0.0 W/m2 CLR
10:29 59.0 °F 25.9 °F 30.31 in Calm     28% 0.00 in 0.0 W/m2 CLR
10:34 59.0 °F 25.9 °F 30.31 in Calm     28% 0.00 in 0.0 W/m2 CLR
10:39 59.0 °F 25.9 °F 30.31 in Calm     28% 0.00 in 0.0 W/m2 CLR
10:40 59.0 °F 25.9 °F 30.31 in Calm     28% 0.00 in 0.0 W/m2 CLR
10:45 59.0 °F 25.9 °F 30.31 in Calm     28% 0.00 in 0.0 W/m2 CLR
10:50 59.0 °F 25.9 °F 30.31 in Calm     28% 0.00 in 0.0 W/m2 CLR
10:55 59.0 °F 25.9 °F 30.31 in Calm     28% 0.00 in 0.0 W/m2 CLR
11:00 59.0 °F 25.9 °F 30.31 in Calm     28% 0.00 in 0.0 W/m2 CLR
11:05 59.0 °F 22.2 °F 30.29 in Calm     24% 0.00 in 0.0 W/m2 CLR
11:10 59.0 °F 22.2 °F 30.29 in Calm     24% 0.00 in 0.0 W/m2 CLR
11:15 59.0 °F 22.2 °F 30.29 in Calm     24% 0.00 in 0.0 W/m2 CLR
11:20 59.0 °F 22.2 °F 30.29 in Calm     24% 0.00 in 0.0 W/m2 CLR
11:25 59.0 °F 22.2 °F 30.29 in Calm     24% 0.00 in 0.0 W/m2 CLR
11:30 59.0 °F 22.2 °F 30.29 in Calm     24% 0.00 in 0.0 W/m2 CLR
11:35 59.0 °F 22.2 °F 30.29 in Calm     24% 0.00 in 0.0 W/m2 CLR
11:40 59.0 °F 22.2 °F 30.29 in Calm     24% 0.00 in 0.0 W/m2 CLR
11:45 59.0 °F 22.2 °F 30.29 in Calm     24% 0.00 in 0.0 W/m2 CLR
11:50 59.0 °F 22.2 °F 30.29 in Calm     24% 0.00 in 0.0 W/m2 CLR
11:55 59.0 °F 22.2 °F 30.29 in Calm     24% 0.00 in 0.0 W/m2 CLR
12:00 59.0 °F 22.2 °F 30.29 in Calm     24% 0.00 in 0.0 W/m2 CLR
12:05 62.6 °F 17.1 °F 30.26 in Calm     17% 0.00 in 0.0 W/m2 CLR
12:15 62.6 °F 17.1 °F 30.26 in Calm     17% 0.00 in 0.0 W/m2 CLR
12:20 62.6 °F 17.1 °F 30.26 in Calm     17% 0.00 in 0.0 W/m2 CLR
12:25 62.6 °F 17.1 °F 30.26 in Calm     17% 0.00 in 0.0 W/m2 CLR
12:30 62.6 °F 17.1 °F 30.26 in Calm     17% 0.00 in 0.0 W/m2 CLR
12:35 62.6 °F 17.1 °F 30.26 in Calm     17% 0.00 in 0.0 W/m2 CLR
12:40 62.6 °F 17.1 °F 30.26 in Calm     17% 0.00 in 0.0 W/m2 CLR
12:50 62.6 °F 17.1 °F 30.26 in Calm     17% 0.00 in 0.0 W/m2 CLR
12:55 62.6 °F 17.1 °F 30.26 in Calm     17% 0.00 in 0.0 W/m2 CLR
13:00 62.6 °F 17.1 °F 30.26 in Calm     17% 0.00 in 0.0 W/m2 CLR
13:05 66.2 °F 17.1 °F 30.23 in Calm     15% 0.00 in 0.0 W/m2 CLR
13:10 66.2 °F 17.1 °F 30.23 in Calm     15% 0.00 in 0.0 W/m2 CLR
13:15 66.2 °F 17.1 °F 30.23 in Calm     15% 0.00 in 0.0 W/m2 CLR
13:20 66.2 °F 17.1 °F 30.23 in Calm     15% 0.00 in 0.0 W/m2 CLR
13:25 66.2 °F 17.1 °F 30.23 in Calm     15% 0.00 in 0.0 W/m2 CLR
13:30 66.2 °F 17.1 °F 30.23 in Calm     15% 0.00 in 0.0 W/m2 CLR
13:45 66.2 °F 17.1 °F 30.23 in Calm     15% 0.00 in 0.0 W/m2 CLR
13:50 66.2 °F 17.1 °F 30.23 in Calm     15% 0.00 in 0.0 W/m2 CLR
13:55 66.2 °F 17.1 °F 30.23 in Calm     15% 0.00 in 0.0 W/m2 CLR
14:00 66.2 °F 17.1 °F 30.23 in Calm     15% 0.00 in 0.0 W/m2 CLR
14:05 64.4 °F 25.8 °F 30.20 in Calm     23% 0.00 in 0.0 W/m2 CLR
14:10 64.4 °F 25.8 °F 30.20 in Calm     23% 0.00 in 0.0 W/m2 CLR
14:15 64.4 °F 25.8 °F 30.20 in Calm     23% 0.00 in 0.0 W/m2 CLR
14:20 64.4 °F 25.8 °F 30.20 in Calm     23% 0.00 in 0.0 W/m2 CLR
14:25 64.4 °F 25.8 °F 30.20 in Calm     23% 0.00 in 0.0 W/m2 CLR
14:40 64.4 °F 25.8 °F 30.20 in Calm     23% 0.00 in 0.0 W/m2 CLR
14:50 64.4 °F 25.8 °F 30.20 in Calm     23% 0.00 in 0.0 W/m2 CLR
14:55 64.4 °F 25.8 °F 30.20 in Calm     23% 0.00 in 0.0 W/m2 CLR
15:00 64.4 °F 25.8 °F 30.20 in Calm     23% 0.00 in 0.0 W/m2 CLR
15:05 60.8 °F 25.7 °F 30.18 in Calm     26% 0.00 in 0.0 W/m2 CLR
15:10 60.8 °F 25.7 °F 30.18 in Calm     26% 0.00 in 0.0 W/m2 CLR
15:15 60.8 °F 25.7 °F 30.18 in Calm     26% 0.00 in 0.0 W/m2 CLR
15:20 60.8 °F 25.7 °F 30.18 in Calm     26% 0.00 in 0.0 W/m2 CLR
15:25 60.8 °F 25.7 °F 30.18 in Calm     26% 0.00 in 0.0 W/m2 CLR
15:30 60.8 °F 25.7 °F 30.18 in Calm     26% 0.00 in 0.0 W/m2 CLR
15:35 60.8 °F 25.7 °F 30.18 in Calm     26% 0.00 in 0.0 W/m2 CLR
15:45 60.8 °F 25.7 °F 30.18 in Calm     26% 0.00 in 0.0 W/m2 CLR
15:55 60.8 °F 25.7 °F 30.18 in Calm     26% 0.00 in 0.0 W/m2 CLR
16:00 60.8 °F 25.7 °F 30.18 in Calm     26% 0.00 in 0.0 W/m2 CLR
16:05 60.8 °F 28.3 °F 30.18 in Calm     29% 0.00 in 0.0 W/m2 CLR
16:15 60.8 °F 28.3 °F 30.18 in Calm     29% 0.00 in 0.0 W/m2 CLR
16:20 60.8 °F 28.3 °F 30.18 in Calm     29% 0.00 in 0.0 W/m2 CLR
16:25 60.8 °F 28.3 °F 30.18 in Calm     29% 0.00 in 0.0 W/m2 CLR
16:30 60.8 °F 28.3 °F 30.18 in Calm     29% 0.00 in 0.0 W/m2 CLR
16:35 60.8 °F 28.3 °F 30.18 in Calm     29% 0.00 in 0.0 W/m2 CLR
16:40 60.8 °F 28.3 °F 30.18 in Calm     29% 0.00 in 0.0 W/m2 CLR
16:50 60.8 °F 28.3 °F 30.18 in Calm     29% 0.00 in 0.0 W/m2 CLR
16:55 60.8 °F 28.3 °F 30.18 in Calm     29% 0.00 in 0.0 W/m2 CLR
17:00 60.8 °F 28.3 °F 30.18 in Calm     29% 0.00 in 0.0 W/m2 CLR
17:05 59.0 °F 29.9 °F 30.17 in Calm     33% 0.00 in 0.0 W/m2 CLR
17:10 59.0 °F 29.9 °F 30.17 in Calm     33% 0.00 in 0.0 W/m2 CLR
17:17 59.0 °F 29.9 °F 30.17 in Calm     33% 0.00 in 0.0 W/m2 CLR
17:22 59.0 °F 29.9 °F 30.17 in Calm     33% 0.00 in 0.0 W/m2 CLR
17:27 59.0 °F 29.9 °F 30.17 in Calm     33% 0.00 in 0.0 W/m2 CLR
17:32 59.0 °F 29.9 °F 30.17 in Calm     33% 0.00 in 0.0 W/m2 CLR
17:37 59.0 °F 29.9 °F 30.17 in Calm     33% 0.00 in 0.0 W/m2 CLR
17:42 59.0 °F 29.9 °F 30.17 in Calm     33% 0.00 in 0.0 W/m2 CLR
17:47 59.0 °F 29.9 °F 30.17 in Calm     33% 0.00 in 0.0 W/m2 CLR
17:52 59.0 °F 29.9 °F 30.17 in Calm     33% 0.00 in 0.0 W/m2 CLR
Lake Mary, FL, USA
Compliments of Weather Underground - 1.5 mb